createdAt,value
2023-01-23T00:00:39.321Z,18.17
2023-01-23T00:03:06.107Z,18.93
2023-01-23T00:05:33.024Z,19.03
2023-01-23T00:07:59.760Z,18.07
2023-01-23T00:10:26.527Z,17.57
2023-01-23T00:12:54.619Z,18.50
2023-01-23T00:15:21.354Z,17.43
2023-01-23T00:17:48.745Z,19.00
2023-01-23T00:20:15.903Z,18.70
2023-01-23T00:22:42.649Z,16.87
2023-01-23T00:25:09.525Z,16.30
2023-01-23T00:27:36.423Z,16.57
2023-01-23T00:30:03.802Z,17.07
2023-01-23T00:32:30.619Z,17.27
2023-01-23T00:34:57.511Z,16.53
2023-01-23T00:37:24.257Z,19.13
2023-01-23T00:39:51.197Z,17.87
2023-01-23T00:42:18.245Z,17.07
2023-01-23T00:44:45.098Z,16.93
2023-01-23T00:47:11.897Z,16.73
2023-01-23T00:49:38.736Z,17.23
2023-01-23T00:52:05.596Z,16.93
2023-01-23T00:54:32.428Z,17.97
2023-01-23T00:56:59.257Z,16.83
2023-01-23T00:59:26.104Z,17.57
2023-01-23T01:01:53.442Z,17.60
2023-01-23T01:04:20.394Z,18.80
2023-01-23T01:06:47.178Z,18.13
2023-01-23T01:09:14.048Z,18.70
2023-01-23T01:11:40.896Z,18.53
2023-01-23T01:14:07.770Z,20.37
2023-01-23T01:16:34.569Z,19.67
2023-01-23T01:19:02.124Z,19.60
2023-01-23T01:21:29.298Z,20.13
2023-01-23T01:23:56.073Z,19.23
2023-01-23T01:26:23.286Z,19.90
2023-01-23T01:28:50.631Z,20.23
2023-01-23T01:31:17.538Z,19.07
2023-01-23T01:33:45.092Z,18.63
2023-01-23T01:36:13.014Z,19.87
2023-01-23T01:38:39.802Z,19.93
2023-01-23T01:41:07.040Z,19.00
2023-01-23T01:43:34.698Z,18.33
2023-01-23T01:46:17.262Z,17.93
2023-01-23T01:48:49.967Z,20.13
2023-01-23T01:51:16.806Z,18.83
2023-01-23T01:53:46.698Z,19.53
2023-01-23T01:56:14.527Z,19.20
2023-01-23T01:58:43.217Z,19.13
2023-01-23T02:01:10.254Z,17.73
2023-01-23T02:03:37.520Z,19.83
2023-01-23T02:06:04.766Z,20.00
2023-01-23T02:08:37.772Z,18.63
2023-01-23T02:11:05.416Z,17.20
2023-01-23T02:13:40.027Z,17.80
2023-01-23T02:16:08.579Z,17.90
2023-01-23T02:18:37.182Z,18.47
2023-01-23T02:21:06.433Z,17.00
2023-01-23T02:23:33.583Z,17.13
2023-01-23T02:26:01.619Z,18.90
2023-01-23T02:28:56.262Z,18.90
2023-01-23T02:31:27.427Z,18.10
2023-01-23T02:33:59.281Z,18.20
2023-01-23T02:36:30.120Z,19.30
2023-01-23T02:39:05.642Z,19.67
2023-01-23T02:41:35.132Z,18.50
2023-01-23T02:44:28.393Z,18.83
2023-01-23T02:47:12.560Z,19.90
2023-01-23T02:49:43.462Z,19.17
2023-01-23T02:52:10.887Z,18.80
2023-01-23T02:54:38.054Z,18.37
2023-01-23T02:57:05.118Z,18.70
2023-01-23T02:59:50.503Z,18.20
2023-01-23T03:02:18.103Z,19.30
2023-01-23T03:04:45.069Z,18.77
2023-01-23T03:07:11.827Z,19.23
2023-01-23T03:09:38.855Z,17.90
2023-01-23T03:12:05.893Z,18.83
2023-01-23T03:14:32.701Z,17.10
2023-01-23T03:16:59.635Z,16.70
2023-01-23T03:19:33.529Z,17.43
2023-01-23T03:22:00.888Z,16.90
2023-01-23T03:24:27.818Z,22.93
2023-01-23T03:26:54.672Z,17.63
2023-01-23T03:29:44.532Z,18.07
2023-01-23T03:32:15.192Z,17.73
2023-01-23T03:34:43.084Z,15.90
2023-01-23T03:37:11.138Z,17.37
2023-01-23T03:39:57.582Z,15.80
2023-01-23T03:42:25.473Z,17.03
2023-01-23T03:44:54.059Z,15.50
2023-01-23T03:47:26.530Z,16.10
2023-01-23T03:49:55.096Z,15.07
2023-01-23T03:52:22.093Z,14.20
2023-01-23T03:54:49.097Z,15.83
2023-01-23T03:57:15.993Z,16.13
2023-01-23T04:00:03.361Z,15.73
2023-01-23T04:02:40.458Z,15.23
2023-01-23T04:05:09.808Z,15.03
2023-01-23T04:07:36.852Z,14.80
2023-01-23T04:10:03.985Z,15.03
2023-01-23T04:12:30.984Z,14.70
2023-01-23T04:14:58.162Z,16.10
2023-01-23T04:17:25.025Z,15.50
2023-01-23T04:19:52.325Z,16.13
2023-01-23T04:22:19.112Z,15.33
2023-01-23T04:24:47.972Z,14.97
2023-01-23T04:27:15.019Z,15.57
2023-01-23T04:29:42.143Z,16.13
2023-01-23T04:32:10.326Z,17.43
2023-01-23T04:34:44.176Z,16.37
2023-01-23T04:37:11.008Z,16.13
2023-01-23T04:39:39.044Z,17.07
2023-01-23T04:42:05.907Z,16.13
2023-01-23T04:44:50.970Z,15.67
2023-01-23T04:47:37.740Z,15.57
2023-01-23T04:50:09.346Z,16.10
2023-01-23T04:52:36.235Z,15.90
2023-01-23T04:55:03.669Z,14.83
2023-01-23T04:57:31.023Z,15.70
2023-01-23T05:00:07.200Z,15.73
2023-01-23T05:02:34.129Z,16.27
2023-01-23T05:05:01.374Z,14.07
2023-01-23T05:07:28.636Z,15.43
2023-01-23T05:10:06.589Z,14.53
2023-01-23T05:12:34.557Z,16.77
2023-01-23T05:15:02.988Z,16.73
2023-01-23T05:17:30.425Z,16.23
2023-01-23T05:19:57.284Z,16.53
2023-01-23T05:22:24.131Z,16.37
2023-01-23T05:24:51.086Z,17.23
2023-01-23T05:27:17.978Z,18.07
2023-01-23T05:29:47.728Z,16.53
2023-01-23T05:32:19.978Z,16.97
2023-01-23T05:35:08.352Z,15.23
2023-01-23T05:37:37.373Z,16.37
2023-01-23T05:40:06.904Z,14.73
2023-01-23T05:42:53.993Z,14.93
2023-01-23T05:45:50.263Z,17.07
2023-01-23T05:48:52.859Z,17.47
2023-01-23T05:51:21.375Z,19.30
2023-01-23T05:53:48.602Z,20.00
2023-01-23T05:56:17.124Z,19.17
2023-01-23T05:59:05.545Z,18.63
2023-01-23T06:01:46.704Z,18.77
2023-01-23T06:04:32.042Z,18.27
2023-01-23T06:07:13.400Z,17.90
2023-01-23T06:09:40.452Z,18.07
2023-01-23T06:12:07.458Z,19.73
2023-01-23T06:14:34.252Z,19.30
2023-01-23T06:17:01.176Z,18.10
2023-01-23T06:19:28.148Z,18.23
2023-01-23T06:21:55.144Z,15.90
2023-01-23T06:24:22.517Z,17.00
2023-01-23T06:26:50.038Z,16.40
2023-01-23T06:29:17.421Z,15.73
2023-01-23T06:31:46.286Z,16.60
2023-01-23T06:34:14.239Z,12.73
2023-01-23T06:36:52.145Z,12.87
2023-01-23T06:39:19.414Z,15.37
2023-01-23T06:41:47.419Z,14.57
2023-01-23T06:44:19.804Z,15.20
2023-01-23T06:46:46.882Z,15.70
2023-01-23T06:49:13.813Z,14.47
2023-01-23T06:51:40.768Z,13.10
2023-01-23T06:54:10.690Z,15.07
2023-01-23T06:56:38.697Z,12.77
2023-01-23T06:59:07.920Z,13.67
2023-01-23T07:01:35.231Z,12.93
2023-01-23T07:04:24.329Z,11.33
2023-01-23T07:06:52.043Z,12.77
2023-01-23T07:09:20.005Z,11.70
2023-01-23T07:11:58.962Z,12.57
2023-01-23T07:14:28.789Z,12.57
2023-01-23T07:16:56.703Z,13.37
2023-01-23T07:19:24.554Z,15.53
2023-01-23T07:21:51.948Z,13.87
2023-01-23T07:24:18.777Z,16.87
2023-01-23T07:26:45.580Z,17.13
2023-01-23T07:29:12.388Z,17.60
2023-01-23T07:31:39.250Z,16.77
2023-01-23T07:34:06.133Z,17.67
2023-01-23T07:36:32.872Z,17.33
2023-01-23T07:38:59.730Z,17.43
2023-01-23T07:41:26.508Z,17.63
2023-01-23T07:43:53.424Z,18.17
2023-01-23T07:46:20.749Z,19.40
2023-01-23T07:48:47.560Z,17.80
2023-01-23T07:51:15.657Z,18.97
2023-01-23T07:53:42.502Z,19.57
2023-01-23T07:56:09.316Z,20.57
2023-01-23T07:58:36.160Z,20.80
2023-01-23T08:01:10.117Z,19.90
2023-01-23T08:03:37.156Z,20.97
2023-01-23T08:06:04.110Z,21.20
2023-01-23T08:08:30.935Z,17.23
2023-01-23T08:10:57.770Z,18.97
2023-01-23T08:13:24.665Z,20.83
2023-01-23T08:15:53.511Z,20.23
2023-01-23T08:18:20.434Z,19.63
2023-01-23T08:20:52.793Z,20.10
2023-01-23T08:23:19.579Z,20.43
2023-01-23T08:25:46.474Z,19.33
2023-01-23T08:28:13.241Z,19.57
2023-01-23T08:30:40.137Z,21.47
2023-01-23T08:33:06.870Z,20.90
2023-01-23T08:35:33.676Z,20.30
2023-01-23T08:38:00.555Z,20.80
2023-01-23T08:40:27.350Z,21.20
2023-01-23T08:42:55.608Z,19.77
2023-01-23T08:45:23.796Z,20.03
2023-01-23T08:47:50.594Z,20.83
2023-01-23T08:50:17.739Z,19.23
2023-01-23T08:52:45.111Z,19.23
2023-01-23T08:55:12.948Z,19.57
2023-01-23T08:57:39.688Z,20.80
2023-01-23T09:00:06.846Z,19.00
2023-01-23T09:02:33.678Z,20.27
2023-01-23T09:05:00.603Z,21.03
2023-01-23T09:07:27.751Z,21.13
2023-01-23T09:09:55.227Z,20.90
2023-01-23T09:12:22.033Z,17.93
2023-01-23T09:14:48.886Z,20.33
2023-01-23T09:17:15.620Z,19.77
2023-01-23T09:19:42.388Z,19.33
2023-01-23T09:22:09.258Z,21.30
2023-01-23T09:24:36.112Z,20.33
2023-01-23T09:27:02.951Z,20.80
2023-01-23T09:29:29.802Z,22.13
2023-01-23T09:31:58.751Z,19.67
2023-01-23T09:34:25.664Z,22.20
2023-01-23T09:36:52.546Z,20.83
2023-01-23T09:39:19.284Z,20.10
2023-01-23T09:41:46.440Z,21.70
2023-01-23T09:44:18.621Z,21.50
2023-01-23T09:46:47.968Z,19.97
2023-01-23T09:49:21.136Z,20.87
2023-01-23T09:52:08.263Z,21.33
2023-01-23T09:54:40.848Z,20.63
2023-01-23T09:57:13.578Z,21.53
2023-01-23T09:59:53.964Z,22.47
2023-01-23T10:02:27.064Z,24.10
2023-01-23T10:04:54.444Z,23.70
2023-01-23T10:07:27.563Z,23.50
2023-01-23T10:09:54.317Z,22.20
2023-01-23T10:12:47.178Z,22.67
2023-01-23T10:15:22.488Z,21.43
2023-01-23T10:17:55.601Z,22.83
2023-01-23T10:20:30.541Z,22.13
2023-01-23T10:23:05.238Z,21.37
2023-01-23T10:25:33.477Z,21.53
2023-01-23T10:28:02.396Z,22.40
2023-01-23T10:30:31.591Z,22.13
2023-01-23T10:33:02.471Z,22.13
2023-01-23T10:35:32.432Z,21.97
2023-01-23T10:38:02.219Z,25.97
2023-01-23T10:40:47.845Z,24.73
2023-01-23T10:43:21.602Z,26.00
2023-01-23T10:45:49.430Z,26.10
2023-01-23T10:48:34.745Z,27.07
2023-01-23T10:51:01.565Z,25.87
2023-01-23T10:53:28.379Z,26.23
2023-01-23T10:55:59.661Z,26.87
2023-01-23T10:58:33.371Z,25.80
2023-01-23T11:01:00.613Z,30.13
2023-01-23T11:03:29.802Z,29.57
2023-01-23T11:06:04.695Z,30.40
2023-01-23T11:08:33.368Z,28.10
2023-01-23T11:11:27.050Z,29.30
2023-01-23T11:14:11.600Z,27.13
2023-01-23T11:16:38.411Z,28.50
2023-01-23T11:19:08.120Z,26.30
2023-01-23T11:21:35.950Z,27.33
2023-01-23T11:24:20.408Z,28.47
2023-01-23T11:26:58.033Z,26.70
2023-01-23T11:29:26.067Z,27.87
2023-01-23T11:31:56.002Z,28.27
2023-01-23T11:34:25.451Z,25.93
2023-01-23T11:37:02.831Z,26.50
2023-01-23T11:39:48.213Z,29.37
2023-01-23T11:42:16.197Z,27.80
2023-01-23T11:44:46.406Z,27.30
2023-01-23T11:47:17.296Z,25.40
2023-01-23T11:49:46.917Z,25.43
2023-01-23T11:52:16.611Z,26.97
2023-01-23T11:54:46.499Z,26.60
2023-01-23T11:57:27.394Z,27.07
2023-01-23T11:59:54.182Z,25.20
2023-01-23T12:02:38.251Z,24.77
2023-01-23T12:05:27.706Z,25.13
2023-01-23T12:08:09.183Z,26.13
2023-01-23T12:10:46.221Z,26.07
2023-01-23T12:13:22.286Z,27.33
2023-01-23T12:16:00.955Z,27.60
2023-01-23T12:18:30.661Z,26.67
2023-01-23T12:21:05.698Z,28.07
2023-01-23T12:23:32.517Z,27.13
2023-01-23T12:26:16.652Z,27.93
2023-01-23T12:28:43.581Z,28.10
2023-01-23T12:31:16.252Z,26.03
2023-01-23T12:33:43.134Z,26.30
2023-01-23T12:36:16.047Z,25.70
2023-01-23T12:38:45.858Z,27.30
2023-01-23T12:41:22.653Z,28.27
2023-01-23T12:44:12.898Z,25.13
2023-01-23T12:46:43.576Z,29.20
2023-01-23T12:49:30.606Z,28.33
2023-01-23T12:52:06.394Z,27.70
2023-01-23T12:55:05.636Z,26.47
2023-01-23T12:58:00.353Z,27.47
2023-01-23T13:00:35.443Z,28.67
2023-01-23T13:03:22.702Z,35.23
2023-01-23T13:05:52.413Z,30.43
2023-01-23T13:08:58.056Z,29.83
2023-01-23T13:11:55.219Z,29.43
2023-01-23T13:14:36.760Z,27.13
2023-01-23T13:17:29.401Z,28.67
2023-01-23T13:20:31.431Z,28.80
2023-01-23T13:23:18.172Z,27.90
2023-01-23T13:25:45.328Z,29.10
2023-01-23T13:28:44.586Z,27.40
2023-01-23T13:31:31.839Z,26.87
2023-01-23T13:34:10.183Z,28.70
2023-01-23T13:36:42.052Z,28.70
2023-01-23T13:39:18.180Z,32.53
2023-01-23T13:41:45.786Z,28.57
2023-01-23T13:44:42.172Z,28.93
2023-01-23T14:24:43.378Z,29.47
2023-01-23T14:27:21.514Z,30.13
2023-01-23T14:30:02.305Z,33.47
2023-01-23T14:32:31.754Z,29.40
2023-01-23T14:34:58.611Z,30.17
2023-01-23T14:37:26.577Z,32.83
2023-01-23T14:39:54.238Z,33.83
2023-01-23T14:42:31.540Z,33.40
2023-01-23T14:45:00.908Z,33.03
2023-01-23T14:47:37.954Z,28.30
2023-01-23T14:50:09.530Z,27.40
2023-01-23T14:52:36.475Z,26.90
2023-01-23T14:55:08.088Z,27.10
2023-01-23T14:57:36.072Z,25.83
2023-01-23T15:00:03.744Z,26.97
2023-01-23T15:02:33.708Z,26.23
2023-01-23T15:05:16.700Z,24.97
2023-01-23T15:08:03.866Z,26.50
2023-01-23T15:10:44.856Z,25.70
2023-01-23T15:13:20.738Z,26.67
2023-01-23T15:15:52.438Z,26.03
2023-01-23T15:18:29.803Z,28.97
2023-01-23T15:20:57.672Z,25.93
2023-01-23T15:23:28.505Z,26.33
2023-01-23T15:26:14.214Z,23.80
2023-01-23T15:28:56.241Z,26.47
2023-01-23T15:31:32.395Z,20.77
2023-01-23T15:34:15.634Z,26.00
2023-01-23T15:36:54.800Z,28.60
2023-01-23T15:39:32.316Z,29.80
2023-01-23T15:42:22.892Z,25.70
2023-01-23T15:44:50.292Z,32.23
2023-01-23T15:47:17.107Z,38.57
2023-01-23T15:49:44.057Z,31.67
2023-01-23T15:52:20.333Z,28.87
2023-01-23T15:54:48.061Z,27.67
2023-01-23T15:57:14.935Z,26.17
2023-01-23T15:59:41.954Z,28.87
2023-01-23T16:02:29.157Z,26.77
2023-01-23T16:04:57.257Z,27.27
2023-01-23T16:07:30.860Z,29.47
2023-01-23T16:09:57.935Z,32.20
2023-01-23T16:12:27.232Z,31.53
2023-01-23T16:14:55.005Z,35.80
2023-01-23T16:17:21.839Z,33.40
2023-01-23T16:19:48.976Z,25.93
2023-01-23T16:22:21.204Z,27.40
2023-01-23T16:24:48.120Z,28.27
2023-01-23T16:27:17.281Z,26.73
2023-01-23T16:29:44.855Z,26.37
2023-01-23T16:32:11.853Z,26.50
2023-01-23T16:34:38.875Z,26.90
2023-01-23T16:37:06.488Z,26.77
2023-01-23T16:39:33.765Z,25.60
2023-01-23T16:42:00.647Z,25.23
2023-01-23T16:44:27.698Z,28.23
2023-01-23T16:46:54.545Z,27.83
2023-01-23T16:49:21.569Z,32.90
2023-01-23T16:51:56.344Z,30.03
2023-01-23T16:54:23.223Z,28.17
2023-01-23T16:56:53.770Z,27.40
2023-01-23T16:59:35.683Z,31.97
2023-01-23T17:02:06.629Z,31.50
2023-01-23T17:04:33.446Z,30.77
2023-01-23T17:07:00.318Z,25.17
2023-01-23T17:09:27.112Z,24.77
2023-01-23T17:11:55.086Z,28.20
2023-01-23T17:14:30.141Z,36.40
2023-01-23T17:17:07.298Z,47.77
2023-01-23T17:19:38.152Z,29.77
2023-01-23T17:22:06.073Z,45.73
2023-01-23T17:24:32.867Z,28.50
2023-01-23T17:26:59.668Z,25.87
2023-01-23T17:29:26.618Z,35.93
2023-01-23T17:31:53.578Z,28.60
2023-01-23T17:34:21.902Z,26.60
2023-01-23T17:36:49.139Z,40.23
2023-01-23T17:39:15.912Z,29.67
2023-01-23T17:41:44.124Z,22.93
2023-01-23T17:44:10.943Z,27.03
2023-01-23T17:46:39.520Z,26.77
2023-01-23T17:49:24.534Z,20.93
2023-01-23T17:51:51.527Z,20.83
2023-01-23T17:54:19.352Z,22.07
2023-01-23T17:56:46.183Z,21.10
2023-01-23T17:59:12.958Z,21.30
2023-01-23T18:01:39.857Z,19.20
2023-01-23T18:04:19.836Z,19.80
2023-01-23T18:06:47.087Z,20.10
2023-01-23T18:09:14.390Z,22.27
2023-01-23T18:11:43.936Z,20.63
2023-01-23T18:14:22.776Z,20.37
2023-01-23T18:16:50.431Z,20.13
2023-01-23T18:19:17.672Z,20.53
2023-01-23T18:21:48.818Z,20.90
2023-01-23T18:24:27.557Z,48.67
2023-01-23T18:27:14.173Z,22.23
2023-01-23T18:29:40.963Z,21.60
2023-01-23T18:32:27.617Z,21.50
2023-01-23T18:35:08.158Z,24.57
2023-01-23T18:37:47.186Z,23.97
2023-01-23T18:40:13.931Z,20.50
2023-01-23T18:42:59.570Z,21.63
2023-01-23T18:45:27.722Z,23.60
2023-01-23T18:47:54.845Z,19.93
2023-01-23T18:50:27.131Z,22.47
2023-01-23T18:53:29.691Z,20.77
2023-01-23T18:56:25.138Z,19.37
2023-01-23T18:59:12.189Z,20.80
2023-01-23T19:01:52.371Z,19.20
2023-01-23T19:04:21.003Z,20.17
2023-01-23T19:06:48.048Z,20.60
2023-01-23T19:09:18.828Z,18.93
2023-01-23T19:12:07.595Z,24.80
2023-01-23T19:14:55.167Z,18.80
2023-01-23T19:17:28.068Z,18.47
2023-01-23T19:20:00.683Z,19.97
2023-01-23T19:22:30.238Z,19.40
2023-01-23T19:24:57.201Z,19.60
2023-01-23T19:27:24.137Z,18.27
2023-01-23T19:29:51.028Z,19.73
2023-01-23T19:32:18.093Z,18.83
2023-01-23T19:34:44.935Z,18.37
2023-01-23T19:37:12.731Z,18.50
2023-01-23T19:39:39.491Z,19.10
2023-01-23T19:42:06.439Z,17.73
2023-01-23T19:44:33.866Z,19.57
2023-01-23T19:47:03.296Z,18.03
2023-01-23T19:49:30.637Z,16.67
2023-01-23T19:51:57.496Z,17.97
2023-01-23T19:54:24.602Z,19.23
2023-01-23T19:56:52.268Z,18.60
2023-01-23T19:59:19.183Z,18.90
2023-01-23T20:01:48.639Z,19.83
2023-01-23T20:04:20.896Z,18.67
2023-01-23T20:06:54.264Z,18.00
2023-01-23T20:09:21.288Z,18.53
2023-01-23T20:11:48.109Z,18.67
2023-01-23T20:14:15.046Z,18.60
2023-01-23T20:16:43.629Z,17.50
2023-01-23T20:19:14.553Z,22.63
2023-01-23T20:21:41.604Z,20.23
2023-01-23T20:24:08.614Z,19.17
2023-01-23T20:26:35.896Z,17.23
2023-01-23T20:29:04.283Z,18.67
2023-01-23T20:31:33.350Z,17.17
2023-01-23T20:34:00.435Z,15.97
2023-01-23T20:36:27.651Z,16.60
2023-01-23T20:38:56.285Z,17.23
2023-01-23T20:41:23.386Z,17.67
2023-01-23T20:43:50.423Z,17.57
2023-01-23T20:46:19.351Z,16.83
2023-01-23T20:48:46.231Z,16.17
2023-01-23T20:51:14.531Z,16.50
2023-01-23T20:53:41.864Z,18.53
2023-01-23T20:56:15.740Z,17.50
2023-01-23T20:59:02.056Z,17.10
2023-01-23T21:01:30.391Z,16.57
2023-01-23T21:03:57.531Z,16.90
2023-01-23T21:06:24.456Z,17.70
2023-01-23T21:08:51.230Z,17.07
2023-01-23T21:11:19.467Z,18.13
2023-01-23T21:13:50.769Z,17.80
2023-01-23T21:16:17.905Z,18.27
2023-01-23T21:18:47.044Z,17.43
2023-01-23T21:21:16.570Z,18.00
2023-01-23T21:23:45.801Z,17.10
2023-01-23T21:26:12.798Z,16.03
2023-01-23T21:28:39.667Z,17.27
2023-01-23T21:31:42.122Z,17.73
2023-01-23T21:34:10.875Z,18.00
2023-01-23T21:36:38.057Z,18.27
2023-01-23T21:39:05.618Z,17.50
2023-01-23T21:41:32.435Z,17.23
2023-01-23T21:43:59.339Z,17.90
2023-01-23T21:46:26.629Z,17.97
2023-01-23T21:48:53.527Z,20.07
2023-01-23T21:51:21.094Z,18.37
2023-01-23T21:53:48.763Z,19.07
2023-01-23T21:56:16.457Z,19.80
2023-01-23T21:58:43.401Z,17.73
2023-01-23T22:01:33.137Z,16.83
2023-01-23T22:04:05.024Z,18.43
2023-01-23T22:06:32.686Z,19.03
2023-01-23T22:08:59.855Z,17.43
2023-01-23T22:11:26.595Z,17.70
2023-01-23T22:13:53.431Z,18.10
2023-01-23T22:16:22.941Z,19.13
2023-01-23T22:18:55.333Z,17.67
2023-01-23T22:21:22.380Z,18.30
2023-01-23T22:23:49.170Z,18.60
2023-01-23T22:26:15.970Z,18.63
2023-01-23T22:28:42.905Z,18.57
2023-01-23T22:31:11.176Z,18.70
2023-01-23T22:33:40.863Z,18.67
2023-01-23T22:36:09.090Z,18.27
2023-01-23T22:38:35.913Z,18.60
2023-01-23T22:41:03.851Z,17.93
2023-01-23T22:43:30.670Z,18.17
2023-01-23T22:46:08.334Z,18.90
2023-01-23T22:48:35.919Z,18.53
2023-01-23T22:51:03.733Z,20.17
2023-01-23T22:53:32.088Z,18.40
2023-01-23T22:55:59.479Z,19.20
2023-01-23T22:58:27.024Z,19.67
2023-01-23T23:00:54.549Z,19.10
2023-01-23T23:03:21.820Z,20.67
2023-01-23T23:05:57.188Z,20.23
2023-01-23T23:08:24.214Z,21.00
2023-01-23T23:11:01.427Z,19.90
2023-01-23T23:13:28.895Z,19.33
2023-01-23T23:15:55.706Z,19.90
2023-01-23T23:18:22.697Z,18.23
2023-01-23T23:20:49.547Z,20.13
2023-01-23T23:23:16.429Z,19.03
2023-01-23T23:25:43.613Z,19.67
2023-01-23T23:28:10.681Z,20.43
2023-01-23T23:30:37.587Z,19.80
2023-01-23T23:33:04.858Z,20.47
2023-01-23T23:35:31.727Z,18.17
2023-01-23T23:37:58.616Z,18.73
2023-01-23T23:40:25.535Z,20.10
2023-01-23T23:42:52.406Z,19.73
2023-01-23T23:45:19.558Z,20.37
2023-01-23T23:47:46.532Z,18.87
2023-01-23T23:50:13.620Z,19.60
2023-01-23T23:52:41.370Z,18.27
2023-01-23T23:55:09.004Z,20.23
2023-01-23T23:57:35.802Z,19.33
